Time;durP1;ratioP1;P1;durP2;ratioP2;P2;SDS_P1;SDS_P2;PMS_P1;PMS_P2;Temp;Humidity;BMP_temperature;BMP_pressure;BME280_temperature;BME280_humidity;BME280_pressure;Samples;Min_cycle;Max_cycle;Signal;HPM_P1;HPM_P2
2024/02/06 00:01:50;;;;;;;14.30;13.13;;;4.30;99.90;;;;;;5023574;28;20216;-78
2024/02/06 00:04:16;;;;;;;14.50;13.13;;;4.20;99.90;;;;;;5029016;28;20674;-78
2024/02/06 00:06:43;;;;;;;14.73;13.33;;;4.20;99.90;;;;;;5030612;28;20264;-78
2024/02/06 00:09:11;;;;;;;13.67;12.57;;;4.20;99.90;;;;;;5047440;28;20187;-78
2024/02/06 00:11:39;;;;;;;14.20;13.00;;;4.20;99.90;;;;;;5042777;28;20212;-78
2024/02/06 00:14:10;;;;;;;14.60;13.27;;;4.10;99.90;;;;;;5030653;28;20204;-79
2024/02/06 00:16:38;;;;;;;14.53;13.23;;;4.10;99.90;;;;;;5043873;28;20201;-78
2024/02/06 00:19:05;;;;;;;13.90;12.80;;;4.00;99.90;;;;;;5031364;28;20254;-78
2024/02/06 00:21:32;;;;;;;15.07;13.70;;;4.00;99.90;;;;;;5045630;28;20253;-78
2024/02/06 00:24:00;;;;;;;15.27;13.90;;;3.90;99.90;;;;;;5043296;28;20228;-78
2024/02/06 00:26:27;;;;;;;14.87;13.47;;;3.80;99.90;;;;;;5030070;28;20213;-79
2024/02/06 00:28:54;;;;;;;17.13;14.30;;;3.70;99.90;;;;;;5045643;28;20191;-78
2024/02/06 00:31:21;;;;;;;18.37;14.00;;;3.70;99.90;;;;;;5047222;28;20199;-78
2024/02/06 00:33:49;;;;;;;15.07;13.57;;;3.60;99.90;;;;;;5030430;28;20302;-78
2024/02/06 00:36:16;;;;;;;14.73;13.43;;;3.50;99.90;;;;;;5029932;28;20204;-78
2024/02/06 00:38:43;;;;;;;15.07;13.67;;;3.50;99.90;;;;;;5031816;28;20644;-78
2024/02/06 00:41:11;;;;;;;13.87;12.87;;;3.50;99.90;;;;;;5044881;28;20268;-78
2024/02/06 00:43:38;;;;;;;13.93;12.73;;;3.50;99.90;;;;;;5044633;28;20649;-78
2024/02/06 00:46:05;;;;;;;14.30;13.03;;;3.50;99.90;;;;;;5049167;28;20206;-78
2024/02/06 00:48:31;;;;;;;15.07;13.50;;;3.50;99.90;;;;;;5024626;28;20629;-79
2024/02/06 00:51:00;;;;;;;13.37;12.17;;;3.60;99.90;;;;;;5031585;28;20218;-78
2024/02/06 00:53:27;;;;;;;13.63;12.43;;;3.70;99.90;;;;;;5040621;28;20261;-78
2024/02/06 00:55:53;;;;;;;14.10;12.77;;;3.60;99.90;;;;;;5026404;28;20253;-78
2024/02/06 00:58:20;;;;;;;13.47;12.23;;;3.60;99.90;;;;;;5033804;28;20239;-78
2024/02/06 01:00:47;;;;;;;14.10;12.63;;;3.50;99.90;;;;;;5032036;28;20203;-78
2024/02/06 01:03:14;;;;;;;13.83;12.53;;;3.40;99.90;;;;;;5025853;28;20244;-78
2024/02/06 01:05:41;;;;;;;13.77;12.40;;;3.40;99.90;;;;;;5032108;28;20278;-78
2024/02/06 01:08:09;;;;;;;13.10;12.10;;;3.40;99.90;;;;;;5028316;28;20628;-78
2024/02/06 01:10:35;;;;;;;13.87;12.47;;;3.40;99.90;;;;;;5023762;28;20270;-79
2024/02/06 01:13:02;;;;;;;12.67;11.63;;;3.40;99.90;;;;;;5030862;28;20242;-78
2024/02/06 01:15:29;;;;;;;13.30;12.30;;;3.30;99.90;;;;;;5023592;28;20564;-78
2024/02/06 01:17:56;;;;;;;13.80;12.60;;;3.30;99.90;;;;;;5019754;28;20199;-78
2024/02/06 01:20:22;;;;;;;13.77;12.50;;;3.30;99.90;;;;;;5042629;28;20220;-78
2024/02/06 01:22:49;;;;;;;14.93;13.40;;;3.30;99.90;;;;;;5026284;28;20231;-78
2024/02/06 01:25:17;;;;;;;14.13;12.87;;;3.30;99.90;;;;;;5051440;28;20229;-78
2024/02/06 01:27:44;;;;;;;13.87;12.60;;;3.30;99.90;;;;;;5027726;28;20246;-79
2024/02/06 01:30:12;;;;;;;14.47;13.17;;;3.30;99.90;;;;;;5044103;28;20203;-78
2024/02/06 01:32:38;;;;;;;15.17;13.80;;;3.40;99.90;;;;;;5045636;28;20717;-78
2024/02/06 01:35:06;;;;;;;16.37;14.97;;;3.40;99.90;;;;;;5028102;28;20195;-78
2024/02/06 01:37:33;;;;;;;15.30;13.90;;;3.40;99.90;;;;;;5033371;28;20204;-78
2024/02/06 01:40:00;;;;;;;14.67;13.43;;;3.40;99.90;;;;;;5032088;28;20223;-78
2024/02/06 01:42:28;;;;;;;15.03;13.73;;;3.40;99.90;;;;;;5035385;28;20775;-78
2024/02/06 01:44:55;;;;;;;15.77;14.40;;;3.40;99.90;;;;;;5050539;28;20195;-78
2024/02/06 01:47:22;;;;;;;15.80;13.80;;;3.40;99.90;;;;;;5047376;28;20582;-78
2024/02/06 01:49:50;;;;;;;14.43;13.17;;;3.40;99.90;;;;;;5050132;28;20254;-78
2024/02/06 01:52:17;;;;;;;15.50;14.00;;;3.40;99.90;;;;;;5031029;28;20222;-78
2024/02/06 01:54:44;;;;;;;14.90;13.63;;;3.30;99.90;;;;;;5050798;28;20227;-78
2024/02/06 01:57:11;;;;;;;14.80;13.57;;;3.30;99.90;;;;;;5049685;28;20209;-78
2024/02/06 01:59:39;;;;;;;14.73;13.33;;;3.30;99.90;;;;;;5033570;28;20298;-78
2024/02/06 02:02:07;;;;;;;15.07;13.80;;;3.20;99.90;;;;;;5050023;28;20219;-78
2024/02/06 02:04:34;;;;;;;14.23;13.03;;;3.20;99.90;;;;;;5045284;28;20203;-78
2024/02/06 02:07:02;;;;;;;15.73;14.43;;;3.20;99.90;;;;;;5024725;28;20215;-78
2024/02/06 02:09:28;;;;;;;15.23;13.93;;;3.10;99.90;;;;;;5047240;28;20191;-78
2024/02/06 02:11:55;;;;;;;14.93;13.67;;;3.20;99.90;;;;;;5032968;28;20278;-78
2024/02/06 02:14:22;;;;;;;17.87;16.17;;;3.20;99.90;;;;;;5031050;28;20289;-78
2024/02/06 02:16:50;;;;;;;17.80;16.27;;;3.30;99.90;;;;;;5033040;28;20291;-78
2024/02/06 02:19:17;;;;;;;18.60;16.40;;;3.30;99.90;;;;;;5031742;28;20230;-78
2024/02/06 02:21:45;;;;;;;19.40;17.50;;;3.30;99.90;;;;;;5026827;28;20670;-78
2024/02/06 02:24:12;;;;;;;18.20;16.33;;;3.30;99.90;;;;;;5024742;28;20285;-79
2024/02/06 02:26:40;;;;;;;18.43;16.77;;;3.40;99.90;;;;;;5030526;28;20797;-78
2024/02/06 02:29:06;;;;;;;18.90;17.20;;;3.30;99.90;;;;;;5030586;28;20306;-78
2024/02/06 02:31:39;;;;;;;19.10;17.27;;;3.30;99.90;;;;;;5052416;28;20199;-78
2024/02/06 02:34:07;;;;;;;19.03;17.33;;;3.30;99.90;;;;;;5020305;28;20235;-78
2024/02/06 02:36:35;;;;;;;18.47;16.97;;;3.30;99.90;;;;;;5027707;28;20204;-78
2024/02/06 02:39:03;;;;;;;18.33;16.73;;;3.30;99.90;;;;;;5030614;28;20536;-78
2024/02/06 02:41:30;;;;;;;19.20;17.60;;;3.20;99.90;;;;;;5049625;28;20200;-78
2024/02/06 02:43:57;;;;;;;20.50;18.60;;;3.20;99.90;;;;;;5032610;28;20207;-79
2024/02/06 02:46:24;;;;;;;22.57;20.23;;;3.20;99.90;;;;;;5031161;28;20203;-79
2024/02/06 02:48:51;;;;;;;20.60;18.87;;;3.30;99.90;;;;;;5030683;28;20199;-78
2024/02/06 02:51:17;;;;;;;22.33;20.20;;;3.30;99.90;;;;;;5044710;28;20196;-78
2024/02/06 02:53:44;;;;;;;22.17;20.20;;;3.30;99.90;;;;;;5050877;28;20204;-78
2024/02/06 02:56:13;;;;;;;21.53;19.43;;;3.30;99.90;;;;;;5047240;28;20265;-79
2024/02/06 02:58:40;;;;;;;22.60;20.40;;;3.30;99.90;;;;;;5032157;28;20211;-78
2024/02/06 03:01:07;;;;;;;20.73;18.93;;;3.30;99.90;;;;;;5031296;28;20674;-79
2024/02/06 03:03:33;;;;;;;20.20;18.40;;;3.30;99.90;;;;;;5032140;28;20215;-79
2024/02/06 03:06:00;;;;;;;22.80;20.70;;;3.30;99.90;;;;;;5052321;28;20195;-78
2024/02/06 03:08:27;;;;;;;22.00;20.13;;;3.30;99.90;;;;;;5042813;28;20244;-78
2024/02/06 03:10:54;;;;;;;25.27;22.67;;;3.30;99.90;;;;;;5032460;28;20196;-78
2024/02/06 03:13:22;;;;;;;28.53;25.33;;;3.30;99.90;;;;;;5027442;28;20690;-78
2024/02/06 03:15:49;;;;;;;28.17;25.30;;;3.40;99.90;;;;;;5032608;28;20685;-78
2024/02/06 03:18:15;;;;;;;26.80;23.93;;;3.40;99.90;;;;;;5047464;28;20600;-78
2024/02/06 03:20:42;;;;;;;24.87;22.57;;;3.50;99.90;;;;;;5050281;28;20728;-78
2024/02/06 03:23:09;;;;;;;27.23;24.47;;;3.50;99.90;;;;;;5036669;22;20228;-80
2024/02/06 03:25:36;;;;;;;28.63;25.30;;;3.50;99.90;;;;;;5003163;28;20216;-79
2024/02/06 03:28:03;;;;;;;27.43;24.73;;;3.60;99.90;;;;;;5021189;28;20197;-80
2024/02/06 03:30:32;;;;;;;29.77;25.17;;;3.70;99.90;;;;;;5021215;28;20195;-80
2024/02/06 03:32:59;;;;;;;26.67;24.07;;;3.60;99.90;;;;;;5014804;28;20229;-79
2024/02/06 03:35:25;;;;;;;27.30;24.57;;;3.70;99.90;;;;;;5002006;28;20675;-80
2024/02/06 03:37:52;;;;;;;33.37;28.17;;;3.70;99.90;;;;;;4995708;28;20704;-80
2024/02/06 03:40:19;;;;;;;28.93;26.03;;;3.70;99.90;;;;;;4996485;28;20209;-80
2024/02/06 03:42:46;;;;;;;28.33;25.27;;;3.70;99.90;;;;;;5013477;28;20636;-80
2024/02/06 03:45:14;;;;;;;29.37;26.53;;;3.70;99.90;;;;;;5015864;28;20197;-80
2024/02/06 03:47:42;;;;;;;29.03;26.03;;;3.70;99.90;;;;;;5019109;28;20605;-79
2024/02/06 03:50:09;;;;;;;28.43;25.73;;;3.80;99.90;;;;;;4990177;28;20243;-79
2024/02/06 03:52:36;;;;;;;29.97;26.77;;;3.80;99.90;;;;;;4973269;28;20241;-77
2024/02/06 03:55:03;;;;;;;30.80;27.70;;;3.80;99.90;;;;;;4997801;28;20205;-77
2024/02/06 03:57:30;;;;;;;28.80;26.10;;;3.70;99.90;;;;;;4991645;28;20204;-77
2024/02/06 03:59:57;;;;;;;30.73;27.33;;;3.70;99.90;;;;;;4985099;28;20245;-78
2024/02/06 04:02:23;;;;;;;29.10;26.00;;;3.70;99.90;;;;;;4991404;28;20287;-77
2024/02/06 04:04:52;;;;;;;29.77;26.77;;;3.70;99.90;;;;;;4974941;28;20213;-77
2024/02/06 04:07:18;;;;;;;28.30;25.40;;;3.60;99.90;;;;;;4970921;28;20207;-77
2024/02/06 04:09:45;;;;;;;29.40;26.50;;;3.60;99.90;;;;;;4988088;28;20233;-77
2024/02/06 04:12:12;;;;;;;30.00;27.00;;;3.60;99.90;;;;;;4971990;28;20233;-77
2024/02/06 04:14:40;;;;;;;27.33;24.53;;;3.60;99.90;;;;;;4983672;28;20221;-77
2024/02/06 04:17:07;;;;;;;30.40;27.17;;;3.50;99.90;;;;;;4991854;28;20264;-77
2024/02/06 04:19:34;;;;;;;29.67;26.77;;;3.50;99.90;;;;;;5007036;28;20249;-78
2024/02/06 04:22:02;;;;;;;29.73;26.57;;;3.50;99.90;;;;;;5004545;28;20217;-77
2024/02/06 04:24:29;;;;;;;30.43;27.30;;;3.50;99.90;;;;;;4989381;28;20201;-80
2024/02/06 04:26:56;;;;;;;29.43;26.47;;;3.40;99.90;;;;;;4989738;28;20724;-77
2024/02/06 04:29:22;;;;;;;32.87;26.97;;;3.40;99.90;;;;;;5003667;28;20197;-77
2024/02/06 04:31:49;;;;;;;27.67;25.07;;;3.40;99.90;;;;;;5002531;28;20214;-77
2024/02/06 04:34:16;;;;;;;27.87;24.93;;;3.40;99.90;;;;;;4985975;28;20243;-77
2024/02/06 04:36:43;;;;;;;29.07;25.73;;;3.40;99.90;;;;;;4989147;28;20197;-78
2024/02/06 04:39:11;;;;;;;27.93;24.97;;;3.30;99.90;;;;;;5008095;28;20272;-78
2024/02/06 04:41:38;;;;;;;33.17;28.17;;;3.30;99.90;;;;;;4990038;28;20200;-78
2024/02/06 04:44:05;;;;;;;28.53;25.57;;;3.30;99.90;;;;;;4992251;28;20238;-78
2024/02/06 04:46:32;;;;;;;28.30;25.23;;;3.30;99.90;;;;;;4987680;28;20211;-78
2024/02/06 04:48:59;;;;;;;29.27;26.43;;;3.40;99.90;;;;;;5010528;28;20229;-78
2024/02/06 04:51:26;;;;;;;31.83;28.37;;;3.40;99.90;;;;;;4990876;28;20201;-78
2024/02/06 04:53:53;;;;;;;30.50;27.17;;;3.40;99.90;;;;;;5005111;28;20267;-78
2024/02/06 04:56:22;;;;;;;30.77;27.47;;;3.50;99.90;;;;;;5010482;28;20201;-77
2024/02/06 04:58:50;;;;;;;30.93;27.63;;;3.50;99.90;;;;;;5005421;28;20202;-78
2024/02/06 05:01:17;;;;;;;32.33;29.03;;;3.50;99.90;;;;;;4990417;28;20224;-78
2024/02/06 05:03:44;;;;;;;32.83;28.87;;;3.50;99.90;;;;;;4990220;28;20566;-77
2024/02/06 05:06:11;;;;;;;32.87;29.47;;;3.60;99.90;;;;;;4991981;28;20630;-78
2024/02/06 05:08:38;;;;;;;33.50;28.20;;;3.50;99.90;;;;;;5006924;28;20201;-77
2024/02/06 05:11:05;;;;;;;30.80;27.77;;;3.50;99.90;;;;;;5004499;28;20233;-77
2024/02/06 05:13:34;;;;;;;31.07;27.77;;;3.50;99.90;;;;;;4993378;28;20708;-77
2024/02/06 05:16:01;;;;;;;28.47;25.77;;;3.50;99.90;;;;;;5011522;28;20235;-77
2024/02/06 05:18:28;;;;;;;28.30;25.57;;;3.40;99.90;;;;;;5010054;28;20200;-77
2024/02/06 05:20:57;;;;;;;29.20;26.40;;;3.40;99.90;;;;;;4982246;28;20300;-77
2024/02/06 05:23:24;;;;;;;27.63;24.97;;;3.40;99.90;;;;;;4982325;28;20240;-77
2024/02/06 05:25:51;;;;;;;28.03;25.33;;;3.40;99.90;;;;;;5010515;28;20235;-77
2024/02/06 05:28:18;;;;;;;28.93;25.63;;;3.30;99.90;;;;;;4988778;28;20201;-76
2024/02/06 05:30:46;;;;;;;26.00;23.33;;;3.30;99.90;;;;;;5011609;28;20194;-77
2024/02/06 05:33:13;;;;;;;25.30;22.90;;;3.40;99.90;;;;;;4991711;28;20230;-77
2024/02/06 05:35:40;;;;;;;27.27;24.03;;;3.30;99.90;;;;;;4995179;28;20688;-77
2024/02/06 05:38:06;;;;;;;25.47;22.93;;;3.20;99.90;;;;;;4991032;28;20275;-77
2024/02/06 05:40:33;;;;;;;25.77;23.27;;;3.20;99.90;;;;;;5007701;28;20298;-77
2024/02/06 05:43:00;;;;;;;23.73;21.47;;;3.20;99.90;;;;;;4992995;28;20294;-77
2024/02/06 05:45:27;;;;;;;25.57;22.27;;;3.10;99.90;;;;;;5007672;28;20671;-77
2024/02/06 05:47:59;;;;;;;25.13;21.50;;;2.90;99.90;;;;;;5011344;28;20216;-77
2024/02/06 05:50:27;;;;;;;24.17;21.97;;;2.80;99.90;;;;;;4991443;28;20219;-77
2024/02/06 05:52:54;;;;;;;23.03;21.00;;;2.70;99.90;;;;;;4994448;28;20220;-77
2024/02/06 05:55:20;;;;;;;24.70;21.93;;;2.70;99.90;;;;;;5006607;28;20557;-77
2024/02/06 05:57:48;;;;;;;23.97;21.77;;;2.60;99.90;;;;;;4991626;28;20621;-77
2024/02/06 06:00:16;;;;;;;22.73;20.50;;;2.50;99.90;;;;;;5008483;28;20209;-77
2024/02/06 06:02:43;;;;;;;21.53;19.53;;;2.40;99.90;;;;;;5009728;28;20290;-77
2024/02/06 06:05:11;;;;;;;21.03;19.07;;;2.40;99.90;;;;;;4993605;28;20632;-78
2024/02/06 06:07:38;;;;;;;20.43;18.60;;;2.40;99.90;;;;;;4991930;28;20197;-77
2024/02/06 06:10:05;;;;;;;19.17;17.33;;;2.50;99.90;;;;;;4994373;28;20220;-77
2024/02/06 06:12:32;;;;;;;18.17;16.57;;;2.60;99.90;;;;;;4983870;28;20700;-77
2024/02/06 06:14:59;;;;;;;17.73;16.03;;;2.70;99.90;;;;;;5005250;28;20240;-77
2024/02/06 06:17:25;;;;;;;17.83;16.23;;;2.70;99.90;;;;;;4984521;28;20257;-77
2024/02/06 06:19:52;;;;;;;17.73;15.43;;;2.80;99.90;;;;;;5004514;28;20213;-77
2024/02/06 06:22:20;;;;;;;16.97;15.37;;;2.80;99.90;;;;;;5002510;28;20286;-77
2024/02/06 06:24:47;;;;;;;16.37;14.87;;;2.90;99.90;;;;;;5009734;28;20197;-77
2024/02/06 06:27:15;;;;;;;16.03;14.63;;;2.90;99.90;;;;;;5009798;28;20204;-77
2024/02/06 06:29:44;;;;;;;16.80;15.20;;;2.90;99.90;;;;;;5013607;28;20192;-76
2024/02/06 06:32:11;;;;;;;16.07;14.67;;;2.90;99.90;;;;;;4992632;28;20320;-76
2024/02/06 06:34:40;;;;;;;16.43;14.90;;;3.00;99.90;;;;;;4991406;28;20217;-76
2024/02/06 06:37:07;;;;;;;17.07;15.37;;;3.00;99.90;;;;;;4985854;28;20205;-77
2024/02/06 06:39:35;;;;;;;16.97;15.30;;;3.00;99.90;;;;;;4991989;28;20255;-76
2024/02/06 06:42:01;;;;;;;16.53;14.93;;;3.10;99.90;;;;;;4988944;28;20221;-76
2024/02/06 06:44:28;;;;;;;16.13;14.53;;;3.10;99.90;;;;;;5010055;28;20623;-77
2024/02/06 06:46:55;;;;;;;16.13;14.60;;;3.20;99.90;;;;;;5008458;28;20189;-76
2024/02/06 06:49:22;;;;;;;15.47;13.97;;;3.20;99.90;;;;;;5011126;28;20667;-77
2024/02/06 06:51:49;;;;;;;15.77;14.13;;;3.20;99.90;;;;;;5009086;28;20189;-77
2024/02/06 06:54:15;;;;;;;15.27;13.77;;;3.30;99.90;;;;;;4987098;28;20208;-77
2024/02/06 06:56:44;;;;;;;17.13;14.60;;;3.40;99.90;;;;;;5009487;28;20271;-77
2024/02/06 06:59:10;;;;;;;15.40;13.93;;;3.40;99.90;;;;;;5005800;28;20197;-76
2024/02/06 07:01:37;;;;;;;16.23;14.07;;;3.50;99.90;;;;;;4992860;28;20255;-77
2024/02/06 07:04:05;;;;;;;15.97;14.37;;;3.60;99.90;;;;;;5007729;28;20252;-77
2024/02/06 07:06:32;;;;;;;14.30;13.00;;;3.70;99.90;;;;;;5010983;28;20283;-77
2024/02/06 07:08:59;;;;;;;14.47;13.20;;;3.80;99.90;;;;;;4991078;28;20300;-77
2024/02/06 07:11:26;;;;;;;14.73;13.30;;;3.90;99.90;;;;;;4999174;28;20202;-77
2024/02/06 07:13:54;;;;;;;14.80;13.50;;;4.00;99.90;;;;;;5005775;28;20627;-77
2024/02/06 07:16:21;;;;;;;14.77;13.53;;;4.10;99.90;;;;;;4986139;28;20199;-77
2024/02/06 07:18:48;;;;;;;14.57;13.13;;;4.20;99.90;;;;;;4992527;28;20203;-77
2024/02/06 07:21:15;;;;;;;14.90;13.43;;;4.30;99.90;;;;;;5004817;28;20214;-77
2024/02/06 07:23:41;;;;;;;14.57;13.30;;;4.40;99.90;;;;;;5005068;28;20245;-77
2024/02/06 07:26:11;;;;;;;14.13;12.83;;;4.50;99.90;;;;;;4990414;28;20209;-76
2024/02/06 07:28:38;;;;;;;13.43;12.33;;;4.60;99.90;;;;;;4988715;28;20478;-77
2024/02/06 07:31:06;;;;;;;14.73;13.30;;;4.70;99.90;;;;;;4992181;28;20201;-77
2024/02/06 07:33:33;;;;;;;14.70;13.30;;;4.80;99.90;;;;;;4983192;28;20312;-77
2024/02/06 07:36:00;;;;;;;15.97;14.43;;;4.90;99.90;;;;;;4992756;28;20233;-77
2024/02/06 07:38:27;;;;;;;17.90;16.40;;;4.90;99.90;;;;;;5003384;28;20188;-77
2024/02/06 07:40:54;;;;;;;18.63;16.83;;;5.10;99.90;;;;;;5007945;28;20217;-78
2024/02/06 07:43:20;;;;;;;16.83;15.50;;;5.20;99.90;;;;;;4988374;28;20225;-77
2024/02/06 07:45:47;;;;;;;18.27;16.37;;;5.20;99.90;;;;;;4983582;28;20269;-77
2024/02/06 07:48:15;;;;;;;17.20;15.60;;;5.30;99.90;;;;;;5008751;28;20230;-77
2024/02/06 07:50:42;;;;;;;17.53;15.90;;;5.40;99.90;;;;;;5008425;28;20192;-77
2024/02/06 07:53:09;;;;;;;18.33;16.63;;;5.60;99.90;;;;;;4985154;28;20228;-77
2024/02/06 07:55:36;;;;;;;17.80;15.93;;;5.70;99.90;;;;;;5008798;28;20214;-77
2024/02/06 07:58:03;;;;;;;18.63;16.97;;;5.70;99.90;;;;;;5002995;28;20265;-77
2024/02/06 08:00:30;;;;;;;17.90;16.10;;;5.80;99.90;;;;;;5007425;28;20277;-77
2024/02/06 08:02:57;;;;;;;17.67;16.10;;;5.80;99.90;;;;;;5003502;28;20608;-76
2024/02/06 08:05:25;;;;;;;18.50;16.73;;;5.80;99.90;;;;;;4987530;28;20445;-77
2024/02/06 08:07:52;;;;;;;17.20;15.60;;;5.80;99.90;;;;;;5010859;28;20597;-78
2024/02/06 08:10:19;;;;;;;17.53;15.87;;;5.90;99.90;;;;;;4987494;28;20896;-78
2024/02/06 08:12:46;;;;;;;19.27;17.33;;;5.90;99.90;;;;;;5006870;28;20222;-78
2024/02/06 08:15:13;;;;;;;18.97;17.03;;;5.90;99.90;;;;;;4989121;28;20201;-77
2024/02/06 08:17:42;;;;;;;18.40;16.70;;;5.90;99.90;;;;;;4988485;28;20743;-78
2024/02/06 08:20:10;;;;;;;17.80;16.17;;;5.90;99.90;;;;;;4991705;28;20204;-78
2024/02/06 08:22:38;;;;;;;18.30;16.43;;;5.90;99.90;;;;;;5000774;28;20315;-78
2024/02/06 08:25:06;;;;;;;17.47;15.87;;;5.90;99.90;;;;;;4987094;28;20267;-78
2024/02/06 08:27:33;;;;;;;17.20;15.70;;;6.00;99.90;;;;;;5007786;28;20198;-78
2024/02/06 08:30:00;;;;;;;17.80;16.00;;;6.00;99.90;;;;;;5009030;28;20204;-78
2024/02/06 08:32:27;;;;;;;17.87;16.23;;;6.00;99.90;;;;;;4988804;28;20244;-78
2024/02/06 08:34:54;;;;;;;17.63;16.20;;;6.00;99.90;;;;;;4991976;28;20205;-78
2024/02/06 08:37:20;;;;;;;16.87;15.33;;;6.00;99.90;;;;;;5012083;28;20205;-77
2024/02/06 08:39:49;;;;;;;18.07;16.20;;;6.10;99.90;;;;;;5005693;28;20251;-77
2024/02/06 08:42:17;;;;;;;18.07;16.03;;;6.10;99.90;;;;;;4986833;28;20227;-77
2024/02/06 08:44:43;;;;;;;16.70;15.20;;;6.10;99.90;;;;;;5006982;28;20219;-77
2024/02/06 08:47:10;;;;;;;16.70;15.20;;;6.20;99.90;;;;;;5009831;28;20200;-78
2024/02/06 08:49:37;;;;;;;16.73;15.33;;;6.30;99.90;;;;;;5004774;28;20204;-77
2024/02/06 08:52:04;;;;;;;17.13;15.53;;;6.30;99.90;;;;;;5001754;28;20711;-77
2024/02/06 08:54:31;;;;;;;17.53;15.37;;;6.30;99.90;;;;;;5008257;28;20188;-78
2024/02/06 08:56:59;;;;;;;16.93;15.43;;;6.40;99.90;;;;;;4983966;28;20646;-77
2024/02/06 08:59:26;;;;;;;17.37;15.70;;;6.50;99.90;;;;;;5010107;28;20203;-78
2024/02/06 09:01:53;;;;;;;16.60;15.20;;;6.50;99.90;;;;;;5002430;28;20726;-78
2024/02/06 09:04:20;;;;;;;16.23;14.83;;;6.50;99.90;;;;;;4994034;28;20228;-78
2024/02/06 09:06:47;;;;;;;15.77;14.57;;;6.50;99.90;;;;;;4986753;28;20204;-77
2024/02/06 09:09:13;;;;;;;16.77;15.17;;;6.50;99.90;;;;;;5008170;28;20251;-78
2024/02/06 09:11:41;;;;;;;17.27;15.77;;;6.60;99.90;;;;;;5012297;28;20689;-77
2024/02/06 09:14:09;;;;;;;17.60;15.80;;;6.60;99.90;;;;;;5007766;28;20205;-78
2024/02/06 09:16:36;;;;;;;17.40;15.90;;;6.70;99.90;;;;;;4996206;28;20293;-78
2024/02/06 09:19:03;;;;;;;16.07;14.60;;;6.80;99.90;;;;;;4989740;28;20288;-78
2024/02/06 09:21:30;;;;;;;14.60;13.50;;;6.90;99.90;;;;;;5016454;28;20220;-78
2024/02/06 09:23:57;;;;;;;14.67;13.37;;;7.00;99.90;;;;;;5061235;22;20237;-77
2024/02/06 09:26:24;;;;;;;15.00;13.60;;;7.10;99.90;;;;;;5043262;28;20246;-78
2024/02/06 09:28:51;;;;;;;14.90;13.60;;;7.20;99.90;;;;;;5028381;28;20199;-78
2024/02/06 09:31:19;;;;;;;14.60;13.30;;;7.20;99.90;;;;;;5029365;28;20623;-77
2024/02/06 09:33:46;;;;;;;14.20;13.10;;;7.40;99.90;;;;;;5028198;28;20211;-77
2024/02/06 09:36:13;;;;;;;13.63;12.53;;;7.50;99.90;;;;;;5030301;28;20207;-77
2024/02/06 09:38:40;;;;;;;13.63;12.57;;;7.60;99.90;;;;;;5033595;28;20248;-78
2024/02/06 09:41:09;;;;;;;13.70;12.53;;;7.60;99.90;;;;;;5049644;28;20496;-78
2024/02/06 09:43:36;;;;;;;13.53;12.53;;;7.70;99.90;;;;;;5042001;28;20694;-78
2024/02/06 09:46:02;;;;;;;13.00;12.00;;;7.80;99.90;;;;;;5047025;28;20200;-77
2024/02/06 09:48:31;;;;;;;13.00;12.10;;;7.90;99.90;;;;;;5044195;28;20253;-78
2024/02/06 09:50:58;;;;;;;13.30;12.23;;;8.00;99.90;;;;;;5047246;28;20187;-78
2024/02/06 09:53:27;;;;;;;12.73;11.83;;;8.10;99.90;;;;;;5046556;28;20215;-78
2024/02/06 09:55:55;;;;;;;12.50;11.70;;;8.10;99.90;;;;;;5030296;28;20200;-78
2024/02/06 09:58:22;;;;;;;13.03;11.93;;;8.10;99.90;;;;;;5033775;28;20198;-79
2024/02/06 10:00:51;;;;;;;12.53;11.63;;;8.20;99.90;;;;;;5026383;28;20254;-78
2024/02/06 10:03:23;;;;;;;12.40;11.50;;;8.20;99.90;;;;;;5052491;28;20229;-77
2024/02/06 10:05:53;;;;;;;12.17;11.23;;;8.30;99.90;;;;;;5046002;28;20215;-76
2024/02/06 10:08:21;;;;;;;12.17;11.37;;;8.40;99.90;;;;;;5054850;28;20245;-77
2024/02/06 10:10:50;;;;;;;12.50;11.70;;;8.40;99.90;;;;;;5029359;28;20200;-82
2024/02/06 10:13:17;;;;;;;12.30;11.30;;;8.40;99.90;;;;;;5059760;28;20272;-81
2024/02/06 10:15:44;;;;;;;12.53;11.63;;;8.40;99.90;;;;;;5033097;28;20200;-81
2024/02/06 10:18:11;;;;;;;12.40;11.60;;;8.50;99.90;;;;;;5027726;28;20262;-79
2024/02/06 10:20:44;;;;;;;12.43;11.60;;;8.60;99.90;;;;;;5051131;28;20191;-79
2024/02/06 10:23:14;;;;;;;12.33;11.53;;;8.60;99.90;;;;;;5049993;28;20234;-79
2024/02/06 10:25:41;;;;;;;12.87;11.97;;;8.60;99.90;;;;;;5031615;28;20257;-77
2024/02/06 10:28:08;;;;;;;12.53;11.73;;;8.70;99.90;;;;;;5026569;28;20659;-78
2024/02/06 10:30:35;;;;;;;13.00;12.10;;;8.70;99.90;;;;;;5050536;28;20666;-78
2024/02/06 10:33:13;;;;;;;12.40;11.40;;;8.80;99.90;;;;;;5046040;28;20215;-77
2024/02/06 10:35:39;;;;;;;12.57;11.37;;;8.90;99.90;;;;;;5050517;28;20199;-78
2024/02/06 10:38:11;;;;;;;12.00;11.20;;;8.90;99.90;;;;;;5028619;28;20223;-77
2024/02/06 10:40:40;;;;;;;12.57;11.57;;;9.00;99.90;;;;;;5027560;28;20227;-78
2024/02/06 10:43:07;;;;;;;12.00;11.30;;;9.10;99.90;;;;;;5030092;28;20623;-77
2024/02/06 10:45:34;;;;;;;11.73;11.03;;;9.20;99.90;;;;;;5045286;28;20237;-77
2024/02/06 10:48:03;;;;;;;11.80;10.90;;;9.30;99.90;;;;;;5027439;28;20215;-78
2024/02/06 10:50:30;;;;;;;12.07;11.20;;;9.20;99.90;;;;;;5045866;28;20196;-78
2024/02/06 10:52:57;;;;;;;11.67;10.87;;;9.20;99.90;;;;;;5050346;28;20213;-78
2024/02/06 10:55:24;;;;;;;11.70;10.70;;;9.30;99.90;;;;;;5047549;28;20610;-78
2024/02/06 10:58:00;;;;;;;11.60;10.80;;;9.40;99.90;;;;;;5050980;28;20570;-77
2024/02/06 11:00:32;;;;;;;11.67;10.97;;;9.40;99.90;;;;;;5027397;28;20197;-78
2024/02/06 11:02:59;;;;;;;11.67;10.63;;;9.50;99.90;;;;;;5030742;28;20231;-78
2024/02/06 11:05:33;;;;;;;10.93;10.33;;;9.60;99.90;;;;;;5039739;28;20196;-77
2024/02/06 11:08:06;;;;;;;11.40;10.70;;;9.70;99.90;;;;;;5048473;28;20199;-78
2024/02/06 11:10:37;;;;;;;11.57;10.83;;;9.80;99.90;;;;;;5030021;28;20204;-78
2024/02/06 11:13:07;;;;;;;11.53;10.80;;;9.80;99.90;;;;;;5050316;28;20702;-77
2024/02/06 11:15:36;;;;;;;11.60;10.80;;;9.80;99.90;;;;;;5049026;28;20683;-78
2024/02/06 11:18:07;;;;;;;11.10;10.40;;;9.80;99.90;;;;;;5025070;28;20206;-78
2024/02/06 11:20:37;;;;;;;11.80;11.00;;;9.90;99.90;;;;;;5050649;28;20200;-78
2024/02/06 11:23:07;;;;;;;11.80;11.10;;;9.90;99.90;;;;;;5047459;28;20723;-77
2024/02/06 11:25:38;;;;;;;12.63;11.53;;;10.00;99.90;;;;;;5047696;28;20675;-78
2024/02/06 11:28:07;;;;;;;11.73;11.03;;;10.00;99.90;;;;;;5024716;28;20207;-78
2024/02/06 11:30:34;;;;;;;11.57;10.87;;;10.10;99.90;;;;;;5048757;28;20264;-78
2024/02/06 11:33:04;;;;;;;11.50;10.67;;;10.10;99.90;;;;;;5027014;28;20245;-77
2024/02/06 11:35:31;;;;;;;10.63;10.03;;;10.10;99.90;;;;;;5049321;28;20275;-78
2024/02/06 11:37:57;;;;;;;10.77;10.07;;;10.00;99.90;;;;;;5028262;28;20234;-78
2024/02/06 11:40:26;;;;;;;11.53;10.53;;;10.00;99.90;;;;;;5049956;28;20229;-78
2024/02/06 11:43:02;;;;;;;10.97;10.27;;;10.00;99.90;;;;;;5047606;28;20224;-77
2024/02/06 11:45:31;;;;;;;11.57;10.77;;;10.00;99.90;;;;;;5017662;28;20206;-77
2024/02/06 11:48:00;;;;;;;11.20;10.27;;;10.00;99.90;;;;;;5047975;28;20637;-78
2024/02/06 11:50:29;;;;;;;11.13;10.23;;;9.90;99.90;;;;;;5026461;28;20680;-78
2024/02/06 11:53:04;;;;;;;11.00;10.10;;;10.00;99.90;;;;;;5031488;28;20221;-79
2024/02/06 11:55:32;;;;;;;11.30;10.50;;;10.00;99.90;;;;;;5028628;28;20208;-78
2024/02/06 11:58:00;;;;;;;10.13;9.33;;;10.00;99.90;;;;;;5049941;28;20587;-78
2024/02/06 12:00:29;;;;;;;10.77;9.97;;;10.00;99.90;;;;;;5027040;28;20206;-78
2024/02/06 12:02:57;;;;;;;10.10;9.30;;;10.10;99.90;;;;;;5045816;28;20228;-78
2024/02/06 12:05:25;;;;;;;9.83;9.00;;;10.10;99.90;;;;;;5045214;28;20202;-78
2024/02/06 12:07:53;;;;;;;9.50;8.80;;;10.10;99.90;;;;;;5028486;28;20197;-78
2024/02/06 12:10:27;;;;;;;10.60;9.57;;;10.10;99.90;;;;;;5047953;28;20205;-78
2024/02/06 12:12:55;;;;;;;10.43;9.50;;;10.10;99.90;;;;;;5029515;28;20731;-78
2024/02/06 12:15:23;;;;;;;10.00;9.40;;;10.10;99.90;;;;;;5031435;28;20267;-78
2024/02/06 12:17:50;;;;;;;10.20;9.60;;;10.10;99.90;;;;;;5023163;28;20202;-78
2024/02/06 12:20:21;;;;;;;10.47;9.70;;;10.20;99.90;;;;;;5030192;28;20209;-78
2024/02/06 12:22:58;;;;;;;9.93;9.27;;;10.10;99.90;;;;;;5028324;28;20229;-79
2024/02/06 12:25:26;;;;;;;9.87;9.17;;;10.10;99.90;;;;;;5028578;28;20275;-78
2024/02/06 12:28:04;;;;;;;10.10;9.30;;;10.10;99.90;;;;;;5025521;28;20225;-78
2024/02/06 12:30:31;;;;;;;9.47;8.93;;;10.10;99.90;;;;;;5044965;28;20202;-78
2024/02/06 12:32:59;;;;;;;10.50;9.63;;;10.10;99.90;;;;;;5025345;28;20657;-80
2024/02/06 12:35:28;;;;;;;10.20;9.53;;;10.20;99.90;;;;;;5052381;28;20272;-78
2024/02/06 12:37:59;;;;;;;10.10;9.50;;;10.20;99.90;;;;;;5026384;28;20642;-78